Time;durP1;ratioP1;P1;durP2;ratioP2;P2;SDS_P1;SDS_P2;PMS_P1;PMS_P2;Temp;Humidity;BMP_temperature;BMP_pressure;BME280_temperature;BME280_humidity;BME280_pressure;Samples;Min_cycle;Max_cycle;Signal;HPM_P1;HPM_P2
2020/12/20 00:02:03;;;;;;;;;;;;;;;6.25;100.00;98024.63;5088419;28;20041;-77
2020/12/20 00:04:29;;;;;;;;;;;;;;;6.30;100.00;98026.91;5092664;28;19940;-76
2020/12/20 00:06:56;;;;;;;;;;;;;;;6.33;100.00;98014.97;5093482;28;19928;-76
2020/12/20 00:09:22;;;;;;;;;;;;;;;6.33;100.00;98023.31;5092605;28;19931;-77
2020/12/20 00:11:56;;;;;;;;;;;;;;;6.36;100.00;98014.13;5075226;28;19985;-77
2020/12/20 00:14:26;;;;;;;;;;;;;;;6.36;100.00;98025.25;5075304;28;19931;-77
2020/12/20 00:16:54;;;;;;;;;;;;;;;6.42;100.00;98021.53;5075120;28;19924;-77
2020/12/20 00:19:21;;;;;;;;;;;;;;;6.36;100.00;98014.13;5092735;28;20381;-77
2020/12/20 00:21:51;;;;;;;;;;;;;;;6.34;100.00;98013.78;5093227;28;19931;-77
2020/12/20 00:24:18;;;;;;;;;;;;;;;6.31;100.00;98012.63;5104957;28;19924;-77
2020/12/20 00:26:44;;;;;;;;;;;;;;;6.22;100.00;98011.59;5093231;28;19928;-77
2020/12/20 00:29:11;;;;;;;;;;;;;;;6.16;100.00;98013.25;5092716;28;19947;-76
2020/12/20 00:31:37;;;;;;;;;;;;;;;6.02;100.00;98016.25;5093228;28;19953;-76
2020/12/20 00:34:05;;;;;;;;;;;;;;;6.08;100.00;98020.09;5092439;28;20019;-76
2020/12/20 00:36:32;;;;;;;;;;;;;;;6.05;100.00;98001.53;5093077;28;20383;-76
2020/12/20 00:38:59;;;;;;;;;;;;;;;6.10;100.00;98024.06;5092733;28;19930;-76
2020/12/20 00:41:25;;;;;;;;;;;;;;;6.09;100.00;98021.69;5092829;28;19930;-76
2020/12/20 00:43:52;;;;;;;;;;;;;;;6.07;100.00;98018.56;5092961;28;19924;-76
2020/12/20 00:46:19;;;;;;;;;;;;;;;6.08;100.00;98011.78;5074475;28;20025;-76
2020/12/20 00:48:45;;;;;;;;;;;;;;;6.00;100.00;98007.56;5075136;28;19970;-76
2020/12/20 00:51:12;;;;;;;;;;;;;;;5.98;100.00;98009.97;5092354;28;20432;-76
2020/12/20 00:53:39;;;;;;;;;;;;;;;5.94;100.00;98003.69;5074128;28;19977;-76
2020/12/20 00:56:11;;;;;;;;;;;;;;;5.91;100.00;98021.94;5076641;28;20033;-76
2020/12/20 00:58:38;;;;;;;;;;;;;;;5.94;100.00;98009.25;5078463;28;20451;-76
2020/12/20 01:01:05;;;;;;;;;;;;;;;5.95;100.00;98013.56;5078041;28;19932;-76
2020/12/20 01:03:31;;;;;;;;;;;;;;;5.92;100.00;98012.44;5078141;28;19931;-76
2020/12/20 01:05:58;;;;;;;;;;;;;;;5.89;100.00;98001.38;5096006;28;19924;-76
2020/12/20 01:08:26;;;;;;;;;;;;;;;5.87;100.00;98021.22;5096009;28;19930;-76
2020/12/20 01:10:53;;;;;;;;;;;;;;;5.88;100.00;98017.22;5078105;28;19997;-76
2020/12/20 01:13:20;;;;;;;;;;;;;;;5.86;100.00;98030.72;5078002;28;19946;-76
2020/12/20 01:15:48;;;;;;;;;;;;;;;5.85;100.00;98023.59;5061670;28;19924;-76
2020/12/20 01:18:16;;;;;;;;;;;;;;;5.89;100.00;98020.78;5077951;28;19973;-76
2020/12/20 01:20:43;;;;;;;;;;;;;;;5.91;100.00;98038.56;5077101;28;20066;-76
2020/12/20 01:23:09;;;;;;;;;;;;;;;5.99;100.00;98033.72;5060039;28;19924;-76
2020/12/20 01:25:36;;;;;;;;;;;;;;;5.95;100.00;98030.22;5077458;28;20019;-76
2020/12/20 01:28:15;;;;;;;;;;;;;;;5.92;100.00;98029.06;5077921;28;19924;-77
2020/12/20 01:30:42;;;;;;;;;;;;;;;5.99;100.00;98033.72;5077826;28;19993;-77
2020/12/20 01:33:11;;;;;;;;;;;;;;;6.03;100.00;98034.47;5076635;28;19974;-77
2020/12/20 01:35:58;;;;;;;;;;;;;;;6.03;100.00;98040.00;5094897;28;19924;-76
2020/12/20 01:38:24;;;;;;;;;;;;;;;6.05;100.00;98043.13;5095751;28;19985;-76
2020/12/20 01:40:51;;;;;;;;;;;;;;;6.14;100.00;98035.06;5077786;28;19924;-76
2020/12/20 01:43:18;;;;;;;;;;;;;;;6.23;100.00;98038.09;5109490;28;19931;-76
2020/12/20 01:45:45;;;;;;;;;;;;;;;6.17;100.00;98032.25;5095265;28;19931;-76
2020/12/20 01:48:13;;;;;;;;;;;;;;;6.14;100.00;98030.31;5077408;28;20380;-76
2020/12/20 01:50:43;;;;;;;;;;;;;;;6.20;100.00;98034.19;5095122;28;19939;-76
2020/12/20 01:53:11;;;;;;;;;;;;;;;6.25;100.00;98027.38;5093164;28;19925;-76
2020/12/20 01:55:40;;;;;;;;;;;;;;;6.27;100.00;98039.63;5076956;28;19931;-76
2020/12/20 01:58:08;;;;;;;;;;;;;;;6.24;100.00;98043.22;5109186;28;19931;-77
2020/12/20 02:00:42;;;;;;;;;;;;;;;6.24;100.00;98034.16;5060245;28;19934;-76
2020/12/20 02:03:32;;;;;;;;;;;;;;;6.27;100.00;98038.84;5079972;28;19928;-76
2020/12/20 02:06:01;;;;;;;;;;;;;;;6.21;100.00;98038.53;5076059;28;19924;-76
2020/12/20 02:08:28;;;;;;;;;;;;;;;6.18;100.00;98052.47;5076791;28;19950;-76
2020/12/20 02:11:10;;;;;;;;;;;;;;;6.19;100.00;98048.47;5077013;28;20367;-75
2020/12/20 02:13:43;;;;;;;;;;;;;;;6.24;100.00;98048.00;5056600;28;19924;-77
2020/12/20 02:16:13;;;;;;;;;;;;;;;6.28;100.00;98034.88;5067324;28;19930;-76
2020/12/20 02:18:41;;;;;;;;;;;;;;;6.21;100.00;98040.53;5073316;28;19925;-76
2020/12/20 02:21:28;;;;;;;;;;;;;;;6.27;100.00;98049.94;5075985;28;20005;-76
2020/12/20 02:23:59;;;;;;;;;;;;;;;6.20;100.00;98047.25;5076500;28;19928;-76
2020/12/20 02:26:34;;;;;;;;;;;;;;;6.19;100.00;98051.25;5076210;28;20551;-76
2020/12/20 02:29:02;;;;;;;;;;;;;;;6.18;100.00;98052.47;5076524;28;20368;-76
2020/12/20 02:31:30;;;;;;;;;;;;;;;6.20;100.00;98055.59;5056642;28;20429;-76
2020/12/20 02:34:01;;;;;;;;;;;;;;;6.23;100.00;98049.19;5070202;28;19924;-76
2020/12/20 02:36:29;;;;;;;;;;;;;;;6.22;100.00;98042.09;5076760;28;19924;-79
2020/12/20 02:38:57;;;;;;;;;;;;;;;6.16;100.00;98050.13;5076064;28;20289;-76
2020/12/20 02:41:34;;;;;;;;;;;;;;;6.12;100.00;98045.81;5076364;28;19931;-76
2020/12/20 02:44:03;;;;;;;;;;;;;;;6.09;100.00;98043.88;5055477;28;20461;-76
2020/12/20 02:46:30;;;;;;;;;;;;;;;5.99;100.00;98045.59;5059532;28;19924;-76
2020/12/20 02:49:03;;;;;;;;;;;;;;;5.98;100.00;98054.34;5060632;28;20367;-76
2020/12/20 02:51:37;;;;;;;;;;;;;;;5.90;100.00;98044.53;5075737;28;20455;-76
2020/12/20 02:54:03;;;;;;;;;;;;;;;5.89;100.00;98051.28;5075736;28;20374;-76
2020/12/20 02:56:41;;;;;;;;;;;;;;;5.91;100.00;98052.44;5075839;28;20396;-76
2020/12/20 02:59:07;;;;;;;;;;;;;;;5.91;100.00;98043.34;5076565;28;20302;-76
2020/12/20 03:01:34;;;;;;;;;;;;;;;5.82;100.00;98052.16;5075322;28;20563;-76
2020/12/20 03:04:05;;;;;;;;;;;;;;;5.78;100.00;98053.38;5075797;28;20392;-76
2020/12/20 03:06:31;;;;;;;;;;;;;;;5.73;100.00;98042.75;5108495;28;19931;-76
2020/12/20 03:09:00;;;;;;;;;;;;;;;5.71;100.00;98043.16;5075612;28;19977;-76
2020/12/20 03:11:27;;;;;;;;;;;;;;;5.68;100.00;98057.84;5059529;28;19924;-76
2020/12/20 03:13:54;;;;;;;;;;;;;;;5.70;100.00;98049.91;5075416;28;19923;-76
2020/12/20 03:16:20;;;;;;;;;;;;;;;5.73;100.00;98059.38;5076242;28;19924;-75
2020/12/20 03:18:47;;;;;;;;;;;;;;;5.74;100.00;98072.06;5074304;28;20263;-76
2020/12/20 03:21:14;;;;;;;;;;;;;;;5.70;100.00;98071.28;5074936;28;20378;-76
2020/12/20 03:23:48;;;;;;;;;;;;;;;5.69;100.00;98076.06;5079777;28;19931;-76
2020/12/20 03:26:33;;;;;;;;;;;;;;;5.62;100.00;98076.13;5082728;28;20385;-76
2020/12/20 03:29:26;;;;;;;;;;;;;;;5.62;100.00;98080.91;5065635;28;20424;-76
2020/12/20 03:32:03;;;;;;;;;;;;;;;5.63;100.00;98079.69;5074889;28;20033;-76
2020/12/20 03:34:44;;;;;;;;;;;;;;;5.63;100.00;98076.94;5070304;28;20084;-76
2020/12/20 03:37:17;;;;;;;;;;;;;;;5.65;100.00;98080.09;5075706;28;19931;-76
2020/12/20 03:40:05;;;;;;;;;;;;;;;5.70;100.00;98090.69;5085711;28;20248;-76
2020/12/20 03:42:33;;;;;;;;;;;;;;;5.70;100.00;98099.81;5075511;28;20367;-76
2020/12/20 03:45:00;;;;;;;;;;;;;;;5.68;100.00;98102.19;5058569;28;19931;-76
2020/12/20 03:47:26;;;;;;;;;;;;;;;5.70;100.00;98110.09;5108058;28;19931;-76
2020/12/20 03:49:53;;;;;;;;;;;;;;;5.70;100.00;98105.34;5075380;28;19924;-76
2020/12/20 03:52:21;;;;;;;;;;;;;;;5.64;100.00;98107.00;5075327;28;19924;-76
2020/12/20 03:54:56;;;;;;;;;;;;;;;5.66;100.00;98103.81;5075452;28;19924;-76
2020/12/20 03:57:23;;;;;;;;;;;;;;;5.73;100.00;98103.72;5075694;28;19924;-76
2020/12/20 03:59:50;;;;;;;;;;;;;;;5.70;100.00;98110.09;5074819;28;20294;-76
2020/12/20 04:02:18;;;;;;;;;;;;;;;5.76;100.00;98111.19;5074692;28;20010;-76
2020/12/20 04:04:45;;;;;;;;;;;;;;;5.78;100.00;98097.72;5074841;28;19943;-76
2020/12/20 04:07:12;;;;;;;;;;;;;;;5.78;100.00;98100.50;5093436;28;19924;-76
2020/12/20 04:09:44;;;;;;;;;;;;;;;5.75;100.00;98095.78;5075345;28;19924;-76
2020/12/20 04:12:15;;;;;;;;;;;;;;;5.77;100.00;98087.84;5075581;28;19928;-76
2020/12/20 04:14:45;;;;;;;;;;;;;;;5.81;100.00;98094.13;5075097;28;19959;-76
2020/12/20 04:17:14;;;;;;;;;;;;;;;5.78;100.00;98087.44;5075205;28;19928;-76
2020/12/20 04:19:40;;;;;;;;;;;;;;;5.80;100.00;98085.00;5093096;28;19924;-76
2020/12/20 04:22:21;;;;;;;;;;;;;;;5.74;100.00;98083.13;5073526;28;20043;-76
2020/12/20 04:25:19;;;;;;;;;;;;;;;5.72;100.00;98083.56;5030683;28;19964;-76
2020/12/20 04:28:06;;;;;;;;;;;;;;;5.72;100.00;98093.84;5030014;28;19925;-76
2020/12/20 04:30:33;;;;;;;;;;;;;;;5.61;100.00;98088.44;5016557;28;19932;-75
2020/12/20 04:33:08;;;;;;;;;;;;;;;5.55;100.00;98090.09;5030954;28;19932;-76
2020/12/20 04:35:37;;;;;;;;;;;;;;;5.51;100.00;98100.44;5027308;28;20347;-76
2020/12/20 04:38:04;;;;;;;;;;;;;;;5.44;100.00;98112.38;4998220;28;19926;-76
2020/12/20 04:40:38;;;;;;;;;;;;;;;5.44;100.00;98098.50;5032881;28;19925;-76
2020/12/20 04:43:07;;;;;;;;;;;;;;;5.44;100.00;98098.50;5010342;28;19935;-77
2020/12/20 04:45:34;;;;;;;;;;;;;;;5.36;100.00;98094.25;5028147;28;19932;-76
2020/12/20 04:48:05;;;;;;;;;;;;;;;5.34;100.00;98095.88;5014440;28;19935;-76
2020/12/20 04:50:43;;;;;;;;;;;;;;;5.37;100.00;98090.28;5034153;28;20383;-76
2020/12/20 04:53:12;;;;;;;;;;;;;;;5.39;100.00;98106.50;5034546;28;19933;-75
2020/12/20 04:56:01;;;;;;;;;;;;;;;5.32;100.00;98095.47;5001757;28;20087;-76
2020/12/20 04:58:47;;;;;;;;;;;;;;;5.34;100.00;98101.41;5034411;28;19925;-76
2020/12/20 05:01:13;;;;;;;;;;;;;;;5.34;100.00;98104.97;5069379;28;19928;-76
2020/12/20 05:03:40;;;;;;;;;;;;;;;5.33;100.00;98114.44;5078277;28;20007;-76
2020/12/20 05:06:07;;;;;;;;;;;;;;;5.36;100.00;98112.88;5096345;28;19924;-76
2020/12/20 05:08:34;;;;;;;;;;;;;;;5.31;100.00;98103.03;5077452;28;19924;-76
2020/12/20 05:11:02;;;;;;;;;;;;;;;5.33;100.00;98100.59;5096273;28;19978;-76
2020/12/20 05:13:38;;;;;;;;;;;;;;;5.30;100.00;98117.28;5078193;28;19931;-76
2020/12/20 05:16:27;;;;;;;;;;;;;;;5.30;100.00;98112.50;5062025;28;19924;-76
2020/12/20 05:18:59;;;;;;;;;;;;;;;5.32;100.00;98126.75;5078043;28;19931;-76
2020/12/20 05:21:27;;;;;;;;;;;;;;;5.33;100.00;98125.53;5060795;28;19924;-76
2020/12/20 05:23:56;;;;;;;;;;;;;;;5.38;100.00;98132.59;5077272;28;19924;-76
2020/12/20 05:26:36;;;;;;;;;;;;;;;5.31;100.00;98135.47;5077787;28;20359;-76
2020/12/20 05:29:11;;;;;;;;;;;;;;;5.29;100.00;98140.63;5077420;28;19924;-76
2020/12/20 05:31:42;;;;;;;;;;;;;;;5.29;100.00;98130.34;5077689;28;19928;-76
2020/12/20 05:34:28;;;;;;;;;;;;;;;5.29;100.00;98138.66;5092670;28;19931;-76
2020/12/20 05:37:06;;;;;;;;;;;;;;;5.26;100.00;98136.69;5077343;28;19965;-76
2020/12/20 05:39:56;;;;;;;;;;;;;;;5.25;100.00;98146.22;5087091;28;19925;-76
2020/12/20 05:42:36;;;;;;;;;;;;;;;5.23;100.00;98153.34;5109068;28;19928;-76
2020/12/20 05:45:06;;;;;;;;;;;;;;;5.13;100.00;98149.50;5077324;28;19924;-76
2020/12/20 05:47:35;;;;;;;;;;;;;;;5.17;100.00;98172.38;5077081;28;19981;-76
2020/12/20 05:50:04;;;;;;;;;;;;;;;5.24;100.00;98177.84;5077468;28;19924;-76
2020/12/20 05:52:33;;;;;;;;;;;;;;;5.26;100.00;98182.97;5076098;28;19931;-76
2020/12/20 05:55:00;;;;;;;;;;;;;;;5.27;100.00;98198.41;5095050;28;20019;-76
2020/12/20 05:57:27;;;;;;;;;;;;;;;5.26;100.00;98202.38;5095148;28;19924;-76
2020/12/20 05:59:54;;;;;;;;;;;;;;;5.29;100.00;98207.88;5076532;28;20767;-76
2020/12/20 06:02:20;;;;;;;;;;;;;;;5.28;100.00;98200.78;5094975;28;19924;-77
2020/12/20 06:04:48;;;;;;;;;;;;;;;5.37;100.00;98206.63;5094792;28;20290;-76
2020/12/20 06:07:15;;;;;;;;;;;;;;;5.43;100.00;98213.31;5077096;28;19981;-76
2020/12/20 06:09:51;;;;;;;;;;;;;;;5.44;100.00;98223.19;5095078;28;19924;-76
2020/12/20 06:12:20;;;;;;;;;;;;;;;5.48;100.00;98228.69;5059143;28;19963;-76
2020/12/20 06:14:47;;;;;;;;;;;;;;;5.44;100.00;98214.06;5094613;28;19951;-76
2020/12/20 06:17:18;;;;;;;;;;;;;;;5.51;100.00;98214.03;5095217;28;19924;-76
2020/12/20 06:19:47;;;;;;;;;;;;;;;5.48;100.00;98221.16;5094677;28;19932;-77
2020/12/20 06:22:17;;;;;;;;;;;;;;;5.54;100.00;98224.28;5094855;28;20397;-76
2020/12/20 06:24:47;;;;;;;;;;;;;;;5.55;100.00;98225.84;5094702;28;19928;-76
2020/12/20 06:27:15;;;;;;;;;;;;;;;5.50;100.00;98218.78;5094153;28;19969;-75
2020/12/20 06:29:49;;;;;;;;;;;;;;;5.54;100.00;98213.97;5094304;28;19924;-75
2020/12/20 06:32:18;;;;;;;;;;;;;;;5.37;100.00;98203.88;5077281;28;19928;-74
2020/12/20 06:34:45;;;;;;;;;;;;;;;5.38;100.00;98204.63;5071137;28;19928;-73
2020/12/20 06:37:12;;;;;;;;;;;;;;;5.29;100.00;98198.78;5076273;28;20014;-76
2020/12/20 06:39:44;;;;;;;;;;;;;;;5.34;100.00;98188.06;5077315;28;19935;-75
2020/12/20 06:42:57;;;;;;;;;;;;;;;5.29;100.00;98196.81;5071485;28;20029;-75
2020/12/20 06:45:24;;;;;;;;;;;;;;;5.19;100.00;98186.63;5075448;28;19935;-75
2020/12/20 06:48:01;;;;;;;;;;;;;;;5.20;100.00;98188.19;5089631;28;19979;-75
2020/12/20 06:50:54;;;;;;;;;;;;;;;5.12;100.00;98186.66;5071667;28;19930;-75
2020/12/20 06:53:40;;;;;;;;;;;;;;;5.10;100.00;98188.28;5053403;28;19928;-75
2020/12/20 06:56:19;;;;;;;;;;;;;;;5.10;100.00;98200.13;5092925;28;19924;-75
2020/12/20 06:58:46;;;;;;;;;;;;;;;5.16;100.00;98204.06;5093325;28;19962;-75
2020/12/20 07:01:31;;;;;;;;;;;;;;;5.24;100.00;98204.78;5093379;28;20400;-75
2020/12/20 07:03:58;;;;;;;;;;;;;;;5.26;100.00;98214.25;5076074;28;19931;-75
2020/12/20 07:06:24;;;;;;;;;;;;;;;5.34;100.00;98232.38;5075693;28;20275;-75
2020/12/20 07:08:55;;;;;;;;;;;;;;;5.24;100.00;98227.69;5092417;28;20105;-75
2020/12/20 07:11:24;;;;;;;;;;;;;;;5.28;100.00;98227.69;5093904;28;20011;-75
2020/12/20 07:13:54;;;;;;;;;;;;;;;5.26;100.00;98225.31;5105100;28;20287;-75
2020/12/20 07:16:20;;;;;;;;;;;;;;;5.32;100.00;98229.22;5093800;28;19947;-74
2020/12/20 07:19:01;;;;;;;;;;;;;;;5.30;100.00;98236.38;5093917;28;19985;-75
2020/12/20 07:21:30;;;;;;;;;;;;;;;5.18;100.00;98229.34;5093705;28;19932;-75
2020/12/20 07:24:10;;;;;;;;;;;;;;;5.24;100.00;98238.78;5092045;28;20374;-75
2020/12/20 07:26:36;;;;;;;;;;;;;;;5.18;100.00;98240.41;5093158;28;19931;-75
2020/12/20 07:29:04;;;;;;;;;;;;;;;5.15;100.00;98244.00;5093536;28;20393;-75
2020/12/20 07:31:31;;;;;;;;;;;;;;;5.10;100.00;98243.66;5093319;28;19924;-75
2020/12/20 07:33:58;;;;;;;;;;;;;;;5.10;100.00;98233.34;5093575;28;19994;-75
2020/12/20 07:36:25;;;;;;;;;;;;;;;5.07;100.00;98242.47;5094008;28;19924;-75
2020/12/20 07:38:52;;;;;;;;;;;;;;;5.09;100.00;98237.31;5092355;28;19924;-76
2020/12/20 07:41:19;;;;;;;;;;;;;;;5.01;100.00;98235.78;5076587;28;19946;-75
2020/12/20 07:43:49;;;;;;;;;;;;;;;5.04;100.00;98246.03;5092727;28;19935;-76
2020/12/20 07:46:16;;;;;;;;;;;;;;;5.11;100.00;98261.84;5075779;28;20398;-77
2020/12/20 07:48:43;;;;;;;;;;;;;;;5.17;100.00;98266.53;5072002;28;20015;-79
2020/12/20 07:51:11;;;;;;;;;;;;;;;5.13;100.00;98278.84;5100135;28;20007;-79
2020/12/20 07:53:45;;;;;;;;;;;;;;;5.23;100.00;98272.44;5089672;28;20392;-78
2020/12/20 07:56:27;;;;;;;;;;;;;;;5.29;100.00;98288.22;5085999;28;20392;-79
2020/12/20 07:58:58;;;;;;;;;;;;;;;5.39;100.00;98292.09;5105982;28;20370;-79
2020/12/20 08:01:25;;;;;;;;;;;;;;;5.35;100.00;98294.09;5096447;28;19953;-79
2020/12/20 08:04:05;;;;;;;;;;;;;;;5.41;100.00;98290.50;5092102;28;19924;-79
2020/12/20 08:06:32;;;;;;;;;;;;;;;5.42;100.00;98294.81;5083421;28;19928;-79
2020/12/20 08:09:04;;;;;;;;;;;;;;;5.50;100.00;98301.91;5074728;28;19928;-79
2020/12/20 08:11:31;;;;;;;;;;;;;;;5.46;100.00;98290.06;5079984;28;19924;-75
2020/12/20 08:13:58;;;;;;;;;;;;;;;5.52;100.00;98288.44;5096656;28;20359;-75
2020/12/20 08:16:28;;;;;;;;;;;;;;;5.47;100.00;98288.84;5096014;28;19934;-75
2020/12/20 08:18:57;;;;;;;;;;;;;;;5.42;100.00;98294.81;5090631;28;19928;-74
2020/12/20 08:21:27;;;;;;;;;;;;;;;5.37;100.00;98295.28;5085989;28;20275;-74
2020/12/20 08:24:01;;;;;;;;;;;;;;;5.38;100.00;98291.31;5056813;28;19924;-75
2020/12/20 08:26:30;;;;;;;;;;;;;;;5.39;100.00;98295.66;5093474;28;20263;-75
2020/12/20 08:28:57;;;;;;;;;;;;;;;5.34;100.00;98296.09;5092878;28;19924;-74
2020/12/20 08:31:32;;;;;;;;;;;;;;;5.49;100.00;98288.44;5087071;28;19924;-75
2020/12/20 08:33:59;;;;;;;;;;;;;;;5.55;100.00;98293.16;5090449;28;19930;-75
2020/12/20 08:36:26;;;;;;;;;;;;;;;5.58;100.00;98297.88;5079680;28;20472;-77
2020/12/20 08:38:54;;;;;;;;;;;;;;;5.65;100.00;98299.00;5091650;28;19959;-76
2020/12/20 08:41:23;;;;;;;;;;;;;;;5.76;100.00;98313.53;5091796;28;19989;-76
2020/12/20 08:44:02;;;;;;;;;;;;;;;5.79;100.00;98302.44;5092502;28;19924;-76
2020/12/20 08:46:33;;;;;;;;;;;;;;;5.89;100.00;98312.69;5092829;28;20425;-76
2020/12/20 08:49:16;;;;;;;;;;;;;;;5.96;100.00;98318.16;5092625;28;19932;-75
2020/12/20 08:51:51;;;;;;;;;;;;;;;6.08;100.00;98314.06;5083527;28;19955;-77
2020/12/20 08:54:27;;;;;;;;;;;;;;;6.10;100.00;98328.31;5092417;28;20363;-76
2020/12/20 08:57:02;;;;;;;;;;;;;;;6.15;100.00;98316.78;5071091;28;20032;-76
2020/12/20 08:59:30;;;;;;;;;;;;;;;6.20;100.00;98316.31;5092296;28;19956;-76
2020/12/20 09:01:58;;;;;;;;;;;;;;;6.24;100.00;98322.63;5073563;28;20032;-75
2020/12/20 09:04:25;;;;;;;;;;;;;;;6.21;100.00;98324.22;5092735;28;19970;-74
2020/12/20 09:06:57;;;;;;;;;;;;;;;6.27;100.00;98322.56;5092088;28;20350;-76
2020/12/20 09:09:24;;;;;;;;;;;;;;;6.18;100.00;98327.06;5091745;28;19924;-76
2020/12/20 09:11:51;;;;;;;;;;;;;;;6.25;100.00;98330.53;5073261;28;19927;-76
2020/12/20 09:14:18;;;;;;;;;;;;;;;6.29;100.00;98331.28;5092068;28;19928;-77
2020/12/20 09:16:45;;;;;;;;;;;;;;;6.34;100.00;98341.94;5090174;28;19924;-76
2020/12/20 09:19:12;;;;;;;;;;;;;;;6.46;100.00;98335.06;5073539;28;19924;-77
2020/12/20 09:21:40;;;;;;;;;;;;;;;6.43;100.00;98338.66;5091017;28;20661;-76
2020/12/20 09:24:06;;;;;;;;;;;;;;;6.55;100.00;98340.91;5091230;28;19924;-77
2020/12/20 09:26:33;;;;;;;;;;;;;;;6.49;100.00;98357.22;5073880;28;19924;-77
2020/12/20 09:29:07;;;;;;;;;;;;;;;6.59;100.00;98338.88;5091886;28;20552;-79
2020/12/20 09:31:34;;;;;;;;;;;;;;;6.69;100.00;98349.06;5093618;28;20474;-80
2020/12/20 09:34:02;;;;;;;;;;;;;;;6.71;100.00;98353.00;5092847;28;19931;-80
2020/12/20 09:36:31;;;;;;;;;;;;;;;6.82;100.00;98348.13;5091874;28;19973;-77
2020/12/20 09:39:01;;;;;;;;;;;;;;;6.87;100.00;98338.53;5056170;28;20389;-77
2020/12/20 09:41:29;;;;;;;;;;;;;;;6.93;100.00;98325.75;5071735;28;19969;-76
2020/12/20 09:43:55;;;;;;;;;;;;;;;6.87;100.00;98327.44;5091334;28;19984;-76
2020/12/20 09:46:25;;;;;;;;;;;;;;;6.97;100.00;98332.03;5091375;28;19931;-76
2020/12/20 09:48:54;;;;;;;;;;;;;;;6.93;100.00;98348.78;5074701;28;19924;-75
2020/12/20 09:51:22;;;;;;;;;;;;;;;7.04;100.00;98343.06;5091802;28;19959;-77
2020/12/20 09:53:49;;;;;;;;;;;;;;;7.04;100.00;98341.06;5092079;28;19963;-76
2020/12/20 09:56:18;;;;;;;;;;;;;;;6.92;100.00;98355.50;5073633;28;19928;-76
2020/12/20 09:58:46;;;;;;;;;;;;;;;6.86;100.00;98342.53;5091379;28;20299;-76
2020/12/20 10:01:16;;;;;;;;;;;;;;;6.66;100.00;98328.50;5073656;28;19928;-76
2020/12/20 10:03:43;;;;;;;;;;;;;;;6.65;100.00;98338.00;5072539;28;19950;-76
2020/12/20 10:06:09;;;;;;;;;;;;;;;6.72;100.00;98339.91;5073454;28;19924;-76
2020/12/20 10:08:36;;;;;;;;;;;;;;;6.69;100.00;98335.19;5072607;28;20007;-76
2020/12/20 10:11:03;;;;;;;;;;;;;;;6.73;100.00;98333.16;5090975;28;19935;-76
2020/12/20 10:13:29;;;;;;;;;;;;;;;6.72;100.00;98342.69;5090776;28;20270;-76
2020/12/20 10:15:56;;;;;;;;;;;;;;;6.74;100.00;98346.63;5058095;28;19928;-76
2020/12/20 10:18:23;;;;;;;;;;;;;;;6.86;100.00;98346.06;5090513;28;20379;-77
2020/12/20 10:20:50;;;;;;;;;;;;;;;6.91;100.00;98351.16;5072459;28;20015;-75
2020/12/20 10:23:16;;;;;;;;;;;;;;;6.86;100.00;98357.19;5091173;28;19935;-77
2020/12/20 10:25:43;;;;;;;;;;;;;;;6.81;100.00;98349.31;5090962;28;19932;-77
2020/12/20 10:28:10;;;;;;;;;;;;;;;6.73;100.00;98355.38;5091098;28;20460;-76
2020/12/20 10:30:36;;;;;;;;;;;;;;;6.73;100.00;98352.59;5090759;28;19928;-75
2020/12/20 10:33:03;;;;;;;;;;;;;;;6.69;100.00;98340.75;5102468;28;20015;-76
2020/12/20 10:35:30;;;;;;;;;;;;;;;6.69;100.00;98349.06;5092930;28;19935;-78
2020/12/20 10:38:02;;;;;;;;;;;;;;;6.69;100.00;98341.53;5074631;28;20009;-77
2020/12/20 10:40:36;;;;;;;;;;;;;;;6.60;100.00;98340.47;5075016;28;19928;-76
2020/12/20 10:43:23;;;;;;;;;;;;;;;6.70;100.00;98350.63;5070619;28;19967;-77
2020/12/20 10:45:50;;;;;;;;;;;;;;;6.73;100.00;98353.38;5089683;28;19931;-75
2020/12/20 10:48:17;;;;;;;;;;;;;;;6.75;100.00;98364.06;5090670;28;19924;-76
2020/12/20 10:50:43;;;;;;;;;;;;;;;6.76;100.00;98354.53;5090352;28;19924;-75
2020/12/20 10:53:10;;;;;;;;;;;;;;;6.82;100.00;98363.97;5089188;28;19924;-75
2020/12/20 10:55:37;;;;;;;;;;;;;;;6.89;100.00;98356.34;5090926;28;19928;-76
2020/12/20 10:58:04;;;;;;;;;;;;;;;7.02;100.00;98353.81;5089130;28;19954;-76
2020/12/20 11:00:35;;;;;;;;;;;;;;;7.12;100.00;98350.09;5090342;28;20006;-76
2020/12/20 11:03:08;;;;;;;;;;;;;;;7.16;100.00;98359.19;5089541;28;19970;-76
2020/12/20 11:05:35;;;;;;;;;;;;;;;7.33;100.00;98355.34;5090642;28;20679;-75
2020/12/20 11:08:02;;;;;;;;;;;;;;;7.48;100.00;98353.16;5071975;28;19924;-75
2020/12/20 11:10:28;;;;;;;;;;;;;;;7.68;100.00;98360.38;5120063;27;19924;-76
2020/12/20 11:12:55;;;;;;;;;;;;;;;7.85;100.00;98352.97;5090765;28;19924;-75
2020/12/20 11:15:21;;;;;;;;;;;;;;;7.80;100.00;98343.09;5089676;27;19924;-75
2020/12/20 11:17:48;;;;;;;;;;;;;;;7.79;100.00;98332.41;5090963;28;19924;-76
2020/12/20 11:20:15;;;;;;;;;;;;;;;7.69;100.00;98327.81;5091538;28;19925;-77
2020/12/20 11:22:43;;;;;;;;;;;;;;;7.66;100.00;98329.44;5094303;28;19974;-76
2020/12/20 11:25:10;;;;;;;;;;;;;;;7.56;100.00;98324.81;5093264;28;19925;-75
2020/12/20 11:27:38;;;;;;;;;;;;;;;7.71;100.00;98314.28;5075989;28;20362;-75
2020/12/20 11:30:09;;;;;;;;;;;;;;;7.81;100.00;98319.66;5059939;28;19924;-77
2020/12/20 11:32:40;;;;;;;;;;;;;;;7.95;100.00;98324.19;5059916;28;19963;-77
2020/12/20 11:35:09;;;;;;;;;;;;;;;7.91;100.00;98321.47;5076068;28;20015;-76
2020/12/20 11:37:36;;;;;;;;;;;;;;;7.68;100.00;98324.22;5075334;28;19928;-75
2020/12/20 11:40:03;;;;;;;;;;;;;;;7.75;100.00;98326.91;5090362;28;19928;-76
2020/12/20 11:42:30;;;;;;;;;;;;;;;7.80;100.00;98312.50;5076339;28;20019;-76
2020/12/20 11:44:57;;;;;;;;;;;;;;;7.77;100.00;98310.59;5109710;28;19924;-76
2020/12/20 11:47:23;;;;;;;;;;;;;;;7.73;100.00;98314.63;5094424;28;19924;-76
2020/12/20 11:49:50;;;;;;;;;;;;;;;7.67;100.00;98302.41;5075939;28;19932;-76
2020/12/20 11:52:17;;;;;;;;;;;;;;;7.39;100.00;98300.91;5093400;28;19932;-76
2020/12/20 11:54:46;;;;;;;;;;;;;;;7.28;100.00;98292.69;5075114;28;19958;-75
2020/12/20 11:57:13;;;;;;;;;;;;;;;7.11;100.00;98291.00;5093173;28;20414;-75
2020/12/20 11:59:40;;;;;;;;;;;;;;;6.91;100.00;98290.06;5074944;28;19924;-77
2020/12/20 12:02:08;;;;;;;;;;;;;;;6.90;100.00;98294.06;5107694;28;19949;-76
2020/12/20 12:04:36;;;;;;;;;;;;;;;6.86;100.00;98298.09;5092935;28;19928;-75
2020/12/20 12:07:03;;;;;;;;;;;;;;;6.89;100.00;98300.81;5074849;28;19924;-75
2020/12/20 12:09:29;;;;;;;;;;;;;;;6.84;100.00;98292.16;5093419;28;19928;-75
2020/12/20 12:11:56;;;;;;;;;;;;;;;6.82;100.00;98297.34;5074763;28;19977;-75
2020/12/20 12:14:23;;;;;;;;;;;;;;;6.91;100.00;98305.94;5087676;28;19924;-75
2020/12/20 12:16:49;;;;;;;;;;;;;;;6.87;100.00;98308.00;5092703;28;19931;-75
2020/12/20 12:19:16;;;;;;;;;;;;;;;6.92;100.00;98316.63;5085854;28;19974;-75
2020/12/20 12:21:42;;;;;;;;;;;;;;;6.87;100.00;98319.91;5086023;28;19939;-75
2020/12/20 12:24:09;;;;;;;;;;;;;;;6.90;100.00;98321.03;5089354;28;19930;-76
2020/12/20 12:26:35;;;;;;;;;;;;;;;6.90;100.00;98326.59;5091156;28;20363;-75
2020/12/20 12:29:02;;;;;;;;;;;;;;;6.92;100.00;98338.09;5092475;28;20011;-75
2020/12/20 12:31:28;;;;;;;;;;;;;;;6.92;100.00;98329.75;5092747;28;19924;-76
2020/12/20 12:33:55;;;;;;;;;;;;;;;6.93;100.00;98336.88;5092741;28;19924;-76
2020/12/20 12:36:26;;;;;;;;;;;;;;;6.88;100.00;98342.88;5108449;28;19924;-75
2020/12/20 12:38:56;;;;;;;;;;;;;;;6.91;100.00;98356.72;5093215;28;19924;-75
2020/12/20 12:41:26;;;;;;;;;;;;;;;6.84;100.00;98350.47;5091591;28;20352;-75
2020/12/20 12:43:52;;;;;;;;;;;;;;;6.80;100.00;98355.28;5091130;28;20301;-76
2020/12/20 12:46:19;;;;;;;;;;;;;;;6.67;100.00;98359.78;5125431;28;20416;-76
2020/12/20 12:48:46;;;;;;;;;;;;;;;6.61;100.00;98370.56;5092633;28;19928;-76
2020/12/20 12:51:19;;;;;;;;;;;;;;;6.57;100.00;98377.38;5093242;28;19974;-76
2020/12/20 12:53:45;;;;;;;;;;;;;;;6.52;100.00;98373.06;5096171;28;20367;-76
2020/12/20 12:56:12;;;;;;;;;;;;;;;6.51;100.00;98390.13;5095320;28;19997;-76
2020/12/20 12:58:39;;;;;;;;;;;;;;;6.48;100.00;98394.50;5095891;28;19931;-76
2020/12/20 13:01:05;;;;;;;;;;;;;;;6.43;100.00;98397.75;5098234;28;19932;-77
2020/12/20 13:03:32;;;;;;;;;;;;;;;6.35;100.00;98401.78;5093752;28;19969;-76